Time;durP1;ratioP1;P1;durP2;ratioP2;P2;SDS_P1;SDS_P2;PMS_P1;PMS_P2;Temp;Humidity;BMP_temperature;BMP_pressure;BME280_temperature;BME280_humidity;BME280_pressure;Samples;Min_cycle;Max_cycle;Signal;HPM_P1;HPM_P2
2021/01/22 00:00:28;;;;;;;1.93;1.17;;;13.30;57.00;;;;;;6184926;23;20422;-74
2021/01/22 00:02:55;;;;;;;1.10;1.00;;;13.30;56.90;;;;;;6185025;23;20919;-73
2021/01/22 00:05:22;;;;;;;0.80;0.80;;;13.30;57.00;;;;;;6184950;23;20418;-73
2021/01/22 00:07:49;;;;;;;1.10;1.10;;;13.20;56.80;;;;;;6185274;23;20413;-73
2021/01/22 00:10:15;;;;;;;5.00;1.10;;;13.20;57.00;;;;;;6185068;23;20442;-73
2021/01/22 00:12:42;;;;;;;1.30;0.80;;;13.10;56.90;;;;;;6185020;23;20900;-74
2021/01/22 00:15:09;;;;;;;1.73;1.63;;;13.10;57.30;;;;;;6185188;23;20410;-73
2021/01/22 00:17:35;;;;;;;1.00;0.90;;;13.00;58.00;;;;;;6182839;23;20908;-74
2021/01/22 00:20:02;;;;;;;0.80;0.80;;;13.00;57.50;;;;;;6185483;23;20448;-73
2021/01/22 00:22:30;;;;;;;1.37;1.10;;;13.00;57.70;;;;;;6185009;23;21006;-73
2021/01/22 00:24:56;;;;;;;1.80;1.20;;;13.00;57.80;;;;;;6184814;23;20457;-73
2021/01/22 00:27:23;;;;;;;1.90;1.30;;;13.00;57.80;;;;;;6184918;23;20418;-74
2021/01/22 00:29:49;;;;;;;1.13;1.03;;;13.00;58.00;;;;;;6184926;23;20445;-73
2021/01/22 00:32:16;;;;;;;0.87;0.87;;;12.90;58.00;;;;;;6184540;23;20527;-74
2021/01/22 00:34:42;;;;;;;0.83;0.83;;;12.90;58.20;;;;;;6184740;23;20971;-73
2021/01/22 00:37:09;;;;;;;1.77;1.30;;;12.90;58.50;;;;;;6184905;23;20410;-74
2021/01/22 00:39:36;;;;;;;1.10;0.97;;;12.90;58.50;;;;;;6185297;23;20414;-74
2021/01/22 00:42:03;;;;;;;1.73;1.10;;;12.90;58.60;;;;;;6185384;23;20421;-73
2021/01/22 00:44:30;;;;;;;1.07;0.80;;;12.80;58.70;;;;;;6182805;23;20413;-73
2021/01/22 00:46:56;;;;;;;0.70;0.70;;;12.70;58.70;;;;;;6184605;23;20418;-73
2021/01/22 00:49:23;;;;;;;1.60;1.00;;;12.70;58.80;;;;;;6184727;23;20406;-73
2021/01/22 00:51:49;;;;;;;1.07;1.00;;;12.60;58.90;;;;;;6184672;23;20461;-73
2021/01/22 00:54:16;;;;;;;0.87;0.87;;;12.60;59.00;;;;;;6184921;23;20411;-73
2021/01/22 00:56:43;;;;;;;1.17;1.07;;;12.60;59.00;;;;;;6184553;23;20406;-73
2021/01/22 00:59:09;;;;;;;0.77;0.77;;;12.60;59.00;;;;;;6184767;23;20413;-73
2021/01/22 01:01:36;;;;;;;1.03;1.03;;;12.60;59.10;;;;;;6184534;23;20418;-73
2021/01/22 01:04:03;;;;;;;0.83;0.83;;;12.60;59.00;;;;;;6184956;23;20414;-73
2021/01/22 01:06:29;;;;;;;1.40;0.97;;;12.60;59.10;;;;;;6185226;23;20406;-73
2021/01/22 01:08:56;;;;;;;2.90;1.07;;;12.50;59.10;;;;;;6184891;23;20410;-73
2021/01/22 01:11:22;;;;;;;1.10;1.10;;;12.50;59.10;;;;;;6182969;23;20450;-74
2021/01/22 01:13:50;;;;;;;1.00;0.90;;;12.50;59.20;;;;;;6184632;23;20414;-73
2021/01/22 01:16:16;;;;;;;1.33;1.10;;;12.50;59.20;;;;;;6184671;23;20410;-73
2021/01/22 01:18:43;;;;;;;2.20;1.37;;;12.50;59.10;;;;;;6184495;23;20904;-73
2021/01/22 01:21:09;;;;;;;1.20;1.10;;;12.50;59.10;;;;;;6184771;23;20410;-73
2021/01/22 01:23:36;;;;;;;1.27;1.17;;;12.40;59.00;;;;;;6184435;23;20421;-73
2021/01/22 01:26:02;;;;;;;0.90;0.90;;;12.40;59.10;;;;;;6184564;23;20429;-73
2021/01/22 01:28:29;;;;;;;0.83;0.80;;;12.40;59.10;;;;;;6184619;23;20413;-73
2021/01/22 01:30:56;;;;;;;0.80;0.77;;;12.40;59.10;;;;;;6184224;23;20441;-73
2021/01/22 01:33:23;;;;;;;1.10;1.00;;;12.40;59.00;;;;;;6184439;23;20412;-73
2021/01/22 01:35:51;;;;;;;0.80;0.80;;;12.40;58.90;;;;;;6184185;23;20453;-73
2021/01/22 01:38:18;;;;;;;1.53;0.73;;;12.40;58.80;;;;;;6183790;23;20896;-73
2021/01/22 01:40:44;;;;;;;1.00;0.80;;;12.40;58.70;;;;;;6184910;23;20796;-73
2021/01/22 01:43:11;;;;;;;1.10;0.97;;;12.40;58.70;;;;;;6185068;23;20465;-74
2021/01/22 01:45:40;;;;;;;1.07;0.97;;;12.40;58.70;;;;;;6184641;23;20448;-74
2021/01/22 01:48:08;;;;;;;0.90;0.87;;;12.40;58.70;;;;;;6184475;23;20971;-74
2021/01/22 01:50:35;;;;;;;1.00;1.00;;;12.40;58.70;;;;;;6184495;23;20410;-74
2021/01/22 01:53:03;;;;;;;1.07;1.00;;;12.40;58.60;;;;;;6184475;23;20418;-73
2021/01/22 01:55:30;;;;;;;1.27;0.80;;;12.50;58.70;;;;;;6184308;23;20445;-74
2021/01/22 01:57:56;;;;;;;4.50;1.37;;;12.50;58.60;;;;;;6184515;23;20415;-73
2021/01/22 02:00:23;;;;;;;0.80;0.77;;;12.50;58.60;;;;;;6184754;23;20441;-73
2021/01/22 02:02:50;;;;;;;1.97;1.07;;;12.50;58.60;;;;;;6182235;23;20414;-73
2021/01/22 02:05:17;;;;;;;0.80;0.80;;;12.50;58.50;;;;;;6184042;23;20417;-73
2021/01/22 02:07:44;;;;;;;1.17;1.07;;;12.50;58.40;;;;;;6185581;23;20413;-74
2021/01/22 02:10:11;;;;;;;1.10;1.00;;;12.50;58.40;;;;;;6186143;23;20939;-74
2021/01/22 02:12:39;;;;;;;0.93;0.90;;;12.60;58.30;;;;;;6186600;23;20453;-73
2021/01/22 02:15:08;;;;;;;0.90;0.90;;;12.60;58.30;;;;;;6186418;23;20441;-74
2021/01/22 02:17:36;;;;;;;1.10;1.00;;;12.60;58.20;;;;;;6186372;23;20444;-73
2021/01/22 02:20:17;;;;;;;3.90;0.93;;;12.60;58.10;;;;;;6186508;23;20429;-73
2021/01/22 02:22:45;;;;;;;1.50;1.00;;;12.60;58.00;;;;;;6186116;23;20780;-73
2021/01/22 02:25:14;;;;;;;1.53;1.23;;;12.50;58.70;;;;;;6185990;23;20415;-74
2021/01/22 02:27:42;;;;;;;2.30;1.27;;;12.50;58.00;;;;;;6186392;23;20421;-73
2021/01/22 02:30:09;;;;;;;1.20;1.10;;;12.50;58.00;;;;;;6184391;23;20406;-73
2021/01/22 02:32:37;;;;;;;0.97;0.93;;;12.50;57.80;;;;;;6186168;23;20458;-73
2021/01/22 02:35:07;;;;;;;1.73;1.17;;;12.50;57.80;;;;;;6186350;23;20410;-74
2021/01/22 02:37:35;;;;;;;2.57;1.20;;;12.50;57.80;;;;;;6186474;23;20512;-73
2021/01/22 02:40:06;;;;;;;0.90;0.90;;;12.40;57.90;;;;;;6186465;23;20440;-74
2021/01/22 02:42:33;;;;;;;1.17;1.07;;;12.40;58.00;;;;;;6185967;23;20414;-73
2021/01/22 02:45:01;;;;;;;1.17;1.10;;;12.40;57.70;;;;;;6185820;23;20410;-73
2021/01/22 02:47:28;;;;;;;3.47;1.27;;;12.40;57.70;;;;;;6186141;23;20480;-73
2021/01/22 02:49:55;;;;;;;1.73;1.20;;;12.40;57.70;;;;;;6186087;23;20488;-74
2021/01/22 02:52:21;;;;;;;2.13;1.20;;;12.50;57.70;;;;;;6185447;23;20454;-73
2021/01/22 02:54:50;;;;;;;2.80;1.60;;;12.50;58.10;;;;;;6186020;23;20406;-73
2021/01/22 02:57:26;;;;;;;1.63;1.00;;;12.50;57.50;;;;;;6183587;23;20452;-74
2021/01/22 03:00:02;;;;;;;1.90;0.93;;;12.40;57.40;;;;;;6185527;23;20417;-74
2021/01/22 03:02:35;;;;;;;1.30;1.20;;;12.40;57.70;;;;;;6186004;23;20402;-73
2021/01/22 03:05:03;;;;;;;1.30;1.20;;;12.40;57.70;;;;;;6185400;23;20417;-73
2021/01/22 03:07:37;;;;;;;1.20;1.10;;;12.40;57.80;;;;;;6186114;23;20464;-73
2021/01/22 03:10:05;;;;;;;2.53;1.47;;;12.30;57.70;;;;;;6185948;23;20425;-74
2021/01/22 03:12:32;;;;;;;1.33;1.23;;;12.20;57.90;;;;;;6185832;23;20508;-73
2021/01/22 03:15:00;;;;;;;2.00;1.00;;;12.20;57.80;;;;;;6185811;23;20793;-73
2021/01/22 03:17:26;;;;;;;1.40;1.30;;;12.20;57.80;;;;;;6185913;23;20432;-74
2021/01/22 03:19:53;;;;;;;1.80;1.70;;;12.20;57.90;;;;;;6185272;23;20487;-74
2021/01/22 03:22:20;;;;;;;2.97;2.03;;;12.20;57.90;;;;;;6183513;23;20741;-73
2021/01/22 03:24:46;;;;;;;2.77;1.10;;;12.20;58.10;;;;;;6185941;23;20472;-73
2021/01/22 03:27:13;;;;;;;2.30;1.63;;;12.10;57.80;;;;;;6185911;23;20413;-73
2021/01/22 03:29:39;;;;;;;2.07;1.40;;;12.10;57.90;;;;;;6185682;23;20456;-73
2021/01/22 03:32:07;;;;;;;1.63;1.20;;;12.00;58.00;;;;;;6185713;23;20453;-73
2021/01/22 03:34:33;;;;;;;3.63;1.27;;;12.00;58.20;;;;;;6185738;23;20734;-74
2021/01/22 03:37:02;;;;;;;1.70;1.17;;;12.10;58.20;;;;;;6185440;23;20449;-75
2021/01/22 03:39:30;;;;;;;3.27;1.87;;;12.10;58.10;;;;;;6185246;23;20413;-75
2021/01/22 03:41:56;;;;;;;2.00;1.53;;;12.10;58.00;;;;;;6185832;23;20801;-74
2021/01/22 03:44:23;;;;;;;3.00;1.40;;;12.10;57.80;;;;;;6185534;23;20410;-75
2021/01/22 03:46:49;;;;;;;3.07;1.23;;;12.10;57.80;;;;;;6185727;23;20805;-74
2021/01/22 03:49:16;;;;;;;2.90;1.07;;;12.00;57.80;;;;;;6183733;23;20467;-74
2021/01/22 03:51:43;;;;;;;1.07;1.07;;;12.00;57.80;;;;;;6185210;23;20461;-75
2021/01/22 03:54:09;;;;;;;3.10;1.27;;;12.00;57.70;;;;;;6185122;23;20421;-74
2021/01/22 03:56:36;;;;;;;1.83;1.70;;;12.00;57.80;;;;;;6185562;23;20460;-74
2021/01/22 03:59:03;;;;;;;1.60;1.20;;;12.00;57.80;;;;;;6184938;23;20437;-75
2021/01/22 04:01:31;;;;;;;1.47;1.20;;;11.90;57.70;;;;;;6185357;23;20908;-74
2021/01/22 04:03:58;;;;;;;2.83;1.20;;;11.90;57.70;;;;;;6185495;23;20798;-74
2021/01/22 04:06:25;;;;;;;4.83;1.53;;;11.90;57.60;;;;;;6185151;23;20415;-74
2021/01/22 04:08:52;;;;;;;3.00;1.50;;;11.90;57.80;;;;;;6185138;23;20413;-74
2021/01/22 04:11:18;;;;;;;1.43;1.10;;;11.80;57.80;;;;;;6184922;23;20453;-74
2021/01/22 04:13:45;;;;;;;2.13;1.03;;;11.80;57.80;;;;;;6185014;23;20409;-74
2021/01/22 04:16:12;;;;;;;2.20;1.20;;;11.70;57.90;;;;;;6183078;23;20410;-74
2021/01/22 04:18:39;;;;;;;1.57;1.43;;;11.70;57.80;;;;;;6185005;23;20414;-75
2021/01/22 04:21:06;;;;;;;2.30;1.30;;;11.70;57.90;;;;;;6184465;23;20413;-74
2021/01/22 04:23:34;;;;;;;2.20;1.17;;;11.70;57.60;;;;;;6182845;23;20441;-74
2021/01/22 04:26:00;;;;;;;2.80;1.47;;;11.70;57.60;;;;;;6184750;23;20784;-75
2021/01/22 04:28:27;;;;;;;2.40;0.93;;;11.80;57.40;;;;;;6184924;23;20452;-74
2021/01/22 04:30:53;;;;;;;2.50;1.07;;;11.80;57.10;;;;;;6184937;23;20465;-74
2021/01/22 04:33:20;;;;;;;1.63;1.37;;;11.80;57.00;;;;;;6183762;23;21015;-74
2021/01/22 04:35:46;;;;;;;1.73;1.20;;;11.90;56.90;;;;;;6184871;23;20441;-74
2021/01/22 04:38:13;;;;;;;2.23;1.77;;;11.90;56.80;;;;;;6184943;23;20449;-75
2021/01/22 04:40:40;;;;;;;2.70;1.30;;;11.90;56.70;;;;;;6184444;23;20434;-75
2021/01/22 04:43:07;;;;;;;5.27;1.37;;;11.80;56.40;;;;;;6182561;23;20421;-74
2021/01/22 04:45:33;;;;;;;3.00;1.73;;;11.80;56.50;;;;;;6184413;23;20916;-74
2021/01/22 04:48:00;;;;;;;1.30;1.10;;;11.80;56.40;;;;;;6184476;23;20753;-74
2021/01/22 04:50:27;;;;;;;1.50;1.23;;;11.90;56.20;;;;;;6185058;23;20422;-74
2021/01/22 04:52:57;;;;;;;1.80;1.10;;;11.80;56.00;;;;;;6184353;23;20960;-74
2021/01/22 04:55:28;;;;;;;2.03;1.27;;;11.90;56.20;;;;;;6184895;23;20417;-74
2021/01/22 04:57:57;;;;;;;2.67;1.33;;;11.90;56.10;;;;;;6183944;23;20402;-73
2021/01/22 05:00:24;;;;;;;2.57;1.20;;;11.90;56.30;;;;;;6184025;23;20741;-74
2021/01/22 05:02:53;;;;;;;0.73;0.73;;;11.90;56.10;;;;;;6184741;23;20456;-73
2021/01/22 05:05:20;;;;;;;0.87;0.70;;;12.00;56.20;;;;;;6184357;23;20412;-74
2021/01/22 05:07:47;;;;;;;1.33;1.03;;;11.90;56.20;;;;;;6184710;23;20741;-73
2021/01/22 05:10:14;;;;;;;1.53;1.23;;;11.90;56.40;;;;;;6182984;23;20414;-74
2021/01/22 05:12:41;;;;;;;0.87;0.87;;;11.90;56.60;;;;;;6184644;23;20453;-74
2021/01/22 05:15:20;;;;;;;3.63;1.20;;;11.80;56.70;;;;;;6184279;23;20405;-74
2021/01/22 05:17:53;;;;;;;1.10;0.73;;;11.90;56.90;;;;;;6184085;23;20413;-74
2021/01/22 05:20:30;;;;;;;1.60;0.83;;;11.90;56.80;;;;;;6184048;23;20445;-74
2021/01/22 05:22:58;;;;;;;1.27;0.70;;;11.90;56.90;;;;;;6184229;23;20448;-74
2021/01/22 05:25:24;;;;;;;0.93;0.90;;;11.90;57.10;;;;;;6184746;23;20476;-73
2021/01/22 05:27:52;;;;;;;1.20;1.10;;;11.80;57.30;;;;;;6184265;23;20423;-73
2021/01/22 05:30:21;;;;;;;1.63;0.90;;;11.90;57.30;;;;;;6184487;23;20468;-73
2021/01/22 05:32:48;;;;;;;0.73;0.73;;;11.90;57.40;;;;;;6185273;23;20457;-74
2021/01/22 05:35:27;;;;;;;1.30;0.70;;;11.90;57.40;;;;;;6183667;23;20461;-74
2021/01/22 05:37:54;;;;;;;1.90;0.90;;;11.90;57.40;;;;;;6184647;23;20425;-74
2021/01/22 05:40:22;;;;;;;1.83;0.80;;;11.90;57.40;;;;;;6184677;23;20418;-74
2021/01/22 05:42:50;;;;;;;0.83;0.77;;;11.90;57.50;;;;;;6186150;23;20410;-74
2021/01/22 05:45:19;;;;;;;1.30;0.77;;;11.80;57.60;;;;;;6186368;23;20406;-73
2021/01/22 05:47:47;;;;;;;0.60;0.60;;;11.80;57.60;;;;;;6186004;23;20409;-73
2021/01/22 05:50:14;;;;;;;0.60;0.60;;;11.90;57.60;;;;;;6186171;23;20919;-74
2021/01/22 05:52:40;;;;;;;1.03;0.97;;;11.90;57.60;;;;;;6185839;23;20978;-74
2021/01/22 05:55:20;;;;;;;1.50;1.10;;;11.90;57.60;;;;;;6186310;23;20454;-74
2021/01/22 05:57:47;;;;;;;0.93;0.83;;;11.90;57.50;;;;;;6186259;23;20418;-74
2021/01/22 06:00:15;;;;;;;0.70;0.60;;;11.90;57.60;;;;;;6186513;23;20414;-73
2021/01/22 06:02:42;;;;;;;1.03;0.97;;;11.80;57.80;;;;;;6184028;23;20473;-73
2021/01/22 06:05:12;;;;;;;1.23;1.00;;;11.70;57.80;;;;;;6186882;23;20417;-73
2021/01/22 06:07:40;;;;;;;0.83;0.80;;;11.80;57.80;;;;;;6186616;23;20417;-74
2021/01/22 06:10:15;;;;;;;0.70;0.70;;;11.90;57.70;;;;;;6186439;23;20448;-73
2021/01/22 06:12:47;;;;;;;0.90;0.90;;;11.90;57.50;;;;;;6186125;23;20790;-75
2021/01/22 06:15:16;;;;;;;0.70;0.70;;;11.90;57.40;;;;;;6186289;23;20446;-73
2021/01/22 06:17:46;;;;;;;2.80;0.70;;;12.00;57.40;;;;;;6185763;23;20438;-74
2021/01/22 06:20:16;;;;;;;1.07;0.90;;;12.00;57.30;;;;;;6186671;23;20434;-74
2021/01/22 06:23:00;;;;;;;1.33;1.23;;;12.00;57.20;;;;;;6185634;23;20867;-73
2021/01/22 06:25:27;;;;;;;3.23;1.10;;;12.00;57.30;;;;;;6183899;23;20409;-73
2021/01/22 06:27:56;;;;;;;1.00;0.90;;;12.00;57.30;;;;;;6185617;23;20418;-73
2021/01/22 06:30:24;;;;;;;1.10;0.60;;;12.00;58.00;;;;;;6184359;23;20468;-74
2021/01/22 06:32:51;;;;;;;2.37;1.57;;;12.00;57.40;;;;;;6185466;23;20497;-74
2021/01/22 06:35:19;;;;;;;1.30;1.20;;;12.00;57.30;;;;;;6185948;23;20415;-75
2021/01/22 06:37:48;;;;;;;2.20;0.90;;;12.00;57.20;;;;;;6185818;23;20437;-74
2021/01/22 06:40:17;;;;;;;0.90;0.80;;;12.00;57.30;;;;;;6185810;23;20413;-74
2021/01/22 06:42:44;;;;;;;1.77;0.80;;;12.00;57.20;;;;;;6186017;23;20958;-74
2021/01/22 06:45:12;;;;;;;1.67;0.90;;;12.00;57.10;;;;;;6185543;23;20436;-74
2021/01/22 06:47:38;;;;;;;1.13;0.90;;;12.00;57.20;;;;;;6185320;23;20425;-74
2021/01/22 06:50:21;;;;;;;4.87;1.17;;;12.00;57.10;;;;;;6185765;23;20461;-74
2021/01/22 06:53:12;;;;;;;1.27;1.03;;;12.00;57.20;;;;;;6185054;23;20454;-74
2021/01/22 06:56:14;;;;;;;1.60;0.90;;;12.00;57.30;;;;;;6185085;23;20421;-73
2021/01/22 06:58:41;;;;;;;3.03;1.17;;;11.90;57.30;;;;;;6185155;23;20412;-74
2021/01/22 07:01:33;;;;;;;1.33;1.23;;;11.90;57.20;;;;;;6185319;23;20433;-74
2021/01/22 07:04:00;;;;;;;1.43;1.17;;;11.90;57.40;;;;;;6185774;23;20437;-73
2021/01/22 07:06:54;;;;;;;1.93;1.23;;;11.90;57.30;;;;;;6184563;23;20424;-73
2021/01/22 07:09:21;;;;;;;1.00;0.87;;;11.80;57.50;;;;;;6185256;23;20402;-74
2021/01/22 07:11:58;;;;;;;1.07;0.70;;;11.80;57.50;;;;;;6185160;23;20837;-74
2021/01/22 07:14:39;;;;;;;1.00;0.90;;;11.80;58.20;;;;;;6185128;23;20427;-74
2021/01/22 07:17:18;;;;;;;4.50;0.90;;;11.80;57.50;;;;;;6184076;23;20409;-74
2021/01/22 07:19:57;;;;;;;0.80;0.70;;;11.90;57.60;;;;;;6181131;23;20927;-73
2021/01/22 07:22:28;;;;;;;1.40;1.30;;;11.90;57.30;;;;;;6184037;23;20454;-73
2021/01/22 07:24:56;;;;;;;1.13;1.03;;;11.90;57.30;;;;;;6183729;23;20448;-73
2021/01/22 07:27:23;;;;;;;1.20;1.10;;;11.90;57.20;;;;;;6184106;23;20808;-73
2021/01/22 07:30:12;;;;;;;0.70;0.70;;;11.90;57.10;;;;;;6183664;23;20432;-72
2021/01/22 07:32:39;;;;;;;1.20;1.10;;;11.90;57.10;;;;;;6184042;23;20453;-73
2021/01/22 07:35:07;;;;;;;1.13;1.00;;;11.90;57.20;;;;;;6182902;23;20406;-73
2021/01/22 07:37:40;;;;;;;2.00;0.80;;;11.90;57.00;;;;;;6181751;23;20414;-73
2021/01/22 07:40:12;;;;;;;4.50;1.20;;;11.90;57.00;;;;;;6184664;23;20455;-73
2021/01/22 07:42:39;;;;;;;3.90;1.23;;;11.90;57.00;;;;;;6185396;23;20405;-73
2021/01/22 07:45:09;;;;;;;0.83;0.83;;;11.90;57.00;;;;;;6185559;23;20892;-73
2021/01/22 07:47:37;;;;;;;5.63;1.20;;;12.00;56.90;;;;;;6184457;23;20464;-74
2021/01/22 07:50:05;;;;;;;0.70;0.70;;;12.10;56.80;;;;;;6184888;23;20418;-74
2021/01/22 07:52:37;;;;;;;4.40;1.03;;;12.10;56.50;;;;;;6182528;23;20986;-73
2021/01/22 07:55:06;;;;;;;1.37;0.80;;;12.10;56.50;;;;;;6184835;23;20414;-75
2021/01/22 07:57:34;;;;;;;1.67;1.00;;;12.10;56.50;;;;;;6184940;23;20411;-74
2021/01/22 08:00:08;;;;;;;1.23;0.83;;;12.20;56.40;;;;;;6185441;23;20942;-73
2021/01/22 08:02:35;;;;;;;1.70;0.90;;;12.40;56.00;;;;;;6180318;23;20564;-74
2021/01/22 08:05:03;;;;;;;1.67;1.03;;;12.50;55.70;;;;;;6183766;23;20410;-73
2021/01/22 08:07:36;;;;;;;1.43;1.33;;;12.60;55.60;;;;;;6185089;23;20417;-73
2021/01/22 08:10:05;;;;;;;1.43;0.83;;;12.70;55.30;;;;;;6184601;23;20410;-74
2021/01/22 08:12:32;;;;;;;3.80;1.00;;;12.70;55.00;;;;;;6184503;23;20500;-74
2021/01/22 08:14:58;;;;;;;1.20;0.80;;;12.70;55.20;;;;;;6184912;23;20492;-74
2021/01/22 08:17:25;;;;;;;1.20;1.10;;;12.70;55.20;;;;;;6184204;23;20904;-74
2021/01/22 08:19:52;;;;;;;0.97;0.87;;;12.80;55.30;;;;;;6183038;23;20445;-71
2021/01/22 08:22:19;;;;;;;1.57;1.13;;;12.90;55.20;;;;;;6185242;23;20430;-72
2021/01/22 08:24:49;;;;;;;1.37;0.90;;;13.00;54.90;;;;;;6184620;23;20410;-72
2021/01/22 08:27:20;;;;;;;1.20;1.10;;;13.00;54.60;;;;;;6184446;23;20413;-72
2021/01/22 08:29:48;;;;;;;2.50;1.10;;;13.00;54.60;;;;;;6184719;23;20421;-72
2021/01/22 08:32:17;;;;;;;1.07;1.00;;;13.10;54.60;;;;;;6184452;23;20457;-73
2021/01/22 08:34:45;;;;;;;1.60;1.20;;;13.10;54.90;;;;;;6184280;23;20445;-73
2021/01/22 08:37:11;;;;;;;3.30;0.90;;;13.10;54.80;;;;;;6184632;23;20805;-74
2021/01/22 08:39:55;;;;;;;4.20;1.20;;;13.10;54.80;;;;;;6184912;23;20406;-73
2021/01/22 08:42:23;;;;;;;1.33;0.67;;;13.10;54.60;;;;;;6184475;23;20433;-73
2021/01/22 08:44:53;;;;;;;1.73;0.80;;;13.10;54.70;;;;;;6184416;23;20505;-74
2021/01/22 08:47:20;;;;;;;2.27;0.93;;;13.00;54.80;;;;;;6183076;23;20490;-72
2021/01/22 08:49:58;;;;;;;2.00;0.90;;;13.10;54.70;;;;;;6181111;23;20418;-72
2021/01/22 08:52:26;;;;;;;1.90;0.80;;;13.10;54.50;;;;;;6183011;23;20450;-72
2021/01/22 08:54:54;;;;;;;1.13;1.03;;;13.20;54.20;;;;;;6183886;23;20437;-73
2021/01/22 08:57:23;;;;;;;2.20;1.10;;;13.20;54.00;;;;;;6184714;23;20993;-73
2021/01/22 08:59:52;;;;;;;0.73;0.73;;;13.20;54.00;;;;;;6184245;23;20439;-72
2021/01/22 09:02:39;;;;;;;3.60;0.80;;;13.30;53.90;;;;;;6183925;23;20504;-72
2021/01/22 09:05:08;;;;;;;1.73;1.10;;;13.30;53.80;;;;;;6183910;23;20413;-73
2021/01/22 09:07:35;;;;;;;1.83;1.73;;;13.30;53.80;;;;;;6184019;23;20472;-73
2021/01/22 09:10:02;;;;;;;1.20;0.80;;;13.30;53.90;;;;;;6184457;23;20414;-73
2021/01/22 09:12:30;;;;;;;3.33;0.90;;;13.30;53.80;;;;;;6182502;23;20460;-73
2021/01/22 09:15:00;;;;;;;1.30;1.20;;;13.30;53.70;;;;;;6183641;23;20415;-72
2021/01/22 09:17:38;;;;;;;7.37;1.20;;;13.30;53.70;;;;;;6184508;23;20411;-73
2021/01/22 09:20:09;;;;;;;1.40;0.90;;;13.30;53.70;;;;;;6186260;23;20892;-72
2021/01/22 09:22:38;;;;;;;1.60;0.80;;;13.20;53.70;;;;;;6186114;23;20433;-73
2021/01/22 09:25:07;;;;;;;3.80;1.00;;;13.20;53.90;;;;;;6186888;23;20413;-73
2021/01/22 09:27:37;;;;;;;4.83;0.80;;;13.30;54.10;;;;;;6185811;23;20777;-73
2021/01/22 09:30:05;;;;;;;1.43;1.30;;;13.30;54.10;;;;;;6186246;23;20410;-73
2021/01/22 09:32:31;;;;;;;2.90;1.30;;;13.40;53.70;;;;;;6186256;23;20956;-74
2021/01/22 09:34:58;;;;;;;5.37;1.70;;;13.50;53.50;;;;;;6184761;23;20473;-73
2021/01/22 09:37:24;;;;;;;1.90;1.20;;;13.50;53.30;;;;;;6186166;23;20406;-73
2021/01/22 09:39:51;;;;;;;4.93;2.30;;;13.60;53.40;;;;;;6183596;23;20414;-73
2021/01/22 09:42:17;;;;;;;2.10;1.20;;;13.70;53.40;;;;;;6185900;23;20978;-74
2021/01/22 09:44:45;;;;;;;1.83;1.10;;;13.90;53.10;;;;;;6185877;23;20444;-73
2021/01/22 09:47:12;;;;;;;2.30;1.43;;;14.00;52.50;;;;;;6185386;23;20417;-73
2021/01/22 09:49:38;;;;;;;3.53;1.13;;;14.10;52.40;;;;;;6186685;23;20429;-73
2021/01/22 09:52:05;;;;;;;7.03;2.90;;;14.20;51.90;;;;;;6186227;23;20782;-73
2021/01/22 09:54:32;;;;;;;3.00;1.33;;;14.20;51.80;;;;;;6185542;23;20417;-73
2021/01/22 09:56:58;;;;;;;3.80;1.77;;;14.20;51.70;;;;;;6186064;23;20417;-73
2021/01/22 09:59:25;;;;;;;4.40;1.67;;;14.30;51.80;;;;;;6186009;23;20417;-73
2021/01/22 10:01:52;;;;;;;3.40;1.90;;;14.30;51.60;;;;;;6185791;23;20402;-73
2021/01/22 10:04:19;;;;;;;2.70;1.33;;;14.40;51.60;;;;;;6185633;23;20410;-74
2021/01/22 10:06:45;;;;;;;1.83;1.17;;;14.50;51.20;;;;;;6185166;23;20905;-73
2021/01/22 10:09:12;;;;;;;7.57;1.97;;;14.70;50.90;;;;;;6184929;23;20402;-74
2021/01/22 10:11:39;;;;;;;3.60;0.97;;;14.80;50.70;;;;;;6185525;23;20446;-74
2021/01/22 10:14:06;;;;;;;2.10;1.33;;;14.90;50.40;;;;;;6186442;23;20410;-74
2021/01/22 10:16:33;;;;;;;3.73;1.70;;;15.10;50.10;;;;;;6185425;23;20410;-74
2021/01/22 10:19:02;;;;;;;4.83;1.40;;;15.20;49.90;;;;;;6186135;23;20476;-74
2021/01/22 10:21:28;;;;;;;2.67;1.50;;;15.20;49.80;;;;;;6185968;23;20735;-74
2021/01/22 10:23:55;;;;;;;1.10;1.00;;;15.20;49.40;;;;;;6186229;23;20420;-73
2021/01/22 10:26:23;;;;;;;1.40;1.30;;;15.10;49.50;;;;;;6185159;23;20445;-72
2021/01/22 10:28:52;;;;;;;8.43;1.60;;;15.10;49.90;;;;;;6185406;23;20406;-73
2021/01/22 10:31:19;;;;;;;2.30;1.93;;;15.00;49.90;;;;;;6185599;23;20418;-73
2021/01/22 10:33:46;;;;;;;4.20;1.40;;;15.10;50.00;;;;;;6186376;23;20410;-73
2021/01/22 10:36:14;;;;;;;1.50;1.20;;;15.10;50.20;;;;;;6184272;23;20410;-72
2021/01/22 10:38:41;;;;;;;2.07;1.90;;;15.20;50.00;;;;;;6185825;23;20418;-74
2021/01/22 10:41:08;;;;;;;2.73;1.17;;;15.30;50.00;;;;;;6185617;23;20410;-74
2021/01/22 10:43:35;;;;;;;3.73;1.10;;;15.40;49.60;;;;;;6185802;23;20402;-73
2021/01/22 10:46:01;;;;;;;1.40;0.93;;;15.60;49.70;;;;;;6184841;23;20414;-73
2021/01/22 10:48:28;;;;;;;1.47;1.30;;;15.70;49.40;;;;;;6181685;23;20739;-73
2021/01/22 10:50:56;;;;;;;7.00;1.80;;;16.00;49.20;;;;;;6178530;23;20417;-73
2021/01/22 10:53:23;;;;;;;3.70;1.30;;;16.20;48.60;;;;;;6180495;23;20460;-73
2021/01/22 10:55:50;;;;;;;1.90;1.30;;;16.50;48.20;;;;;;6174773;23;20413;-72
2021/01/22 10:58:17;;;;;;;1.83;1.30;;;16.80;47.30;;;;;;6184548;23;20472;-73
2021/01/22 11:00:43;;;;;;;1.80;1.00;;;17.10;46.30;;;;;;6184128;23;20410;-73
2021/01/22 11:03:10;;;;;;;7.60;2.33;;;17.20;45.60;;;;;;6183670;23;20460;-73
2021/01/22 11:05:36;;;;;;;3.30;1.63;;;17.00;45.70;;;;;;6185923;23;20413;-72
2021/01/22 11:08:03;;;;;;;1.00;1.00;;;17.00;45.70;;;;;;6185501;23;20410;-72
2021/01/22 11:10:30;;;;;;;1.07;0.97;;;17.00;45.90;;;;;;6186027;23;20406;-72
2021/01/22 11:12:57;;;;;;;3.57;1.40;;;17.10;46.00;;;;;;6185707;23;20500;-73
2021/01/22 11:15:24;;;;;;;4.57;1.53;;;17.30;45.60;;;;;;6185333;23;20444;-73
2021/01/22 11:17:50;;;;;;;1.83;1.10;;;17.30;45.30;;;;;;6185241;23;20414;-73
2021/01/22 11:20:18;;;;;;;2.90;1.43;;;17.30;45.40;;;;;;6185431;23;20545;-74
2021/01/22 11:22:46;;;;;;;3.30;1.90;;;17.20;45.60;;;;;;6185734;23;20440;-73
2021/01/22 11:25:14;;;;;;;4.47;1.77;;;17.20;45.90;;;;;;6185675;23;20729;-73
2021/01/22 11:27:42;;;;;;;2.27;1.80;;;17.20;46.00;;;;;;6185183;23;20406;-72
2021/01/22 11:30:10;;;;;;;6.63;1.83;;;17.10;45.90;;;;;;6183143;23;20413;-72
2021/01/22 11:32:36;;;;;;;1.67;1.10;;;16.90;46.20;;;;;;6185110;23;20449;-73
2021/01/22 11:35:04;;;;;;;1.10;1.00;;;16.80;46.40;;;;;;6185364;23;20778;-73
2021/01/22 11:37:30;;;;;;;1.40;1.30;;;16.80;46.30;;;;;;6185362;23;20924;-73
2021/01/22 11:39:58;;;;;;;3.07;1.00;;;16.70;46.30;;;;;;6185156;23;20493;-73
2021/01/22 11:42:25;;;;;;;5.63;2.93;;;16.90;46.40;;;;;;6186065;23;20406;-73
2021/01/22 11:44:52;;;;;;;3.33;1.20;;;17.00;46.00;;;;;;6185730;23;20410;-73
2021/01/22 11:47:19;;;;;;;3.70;1.10;;;16.90;45.60;;;;;;6184864;23;21882;-73
2021/01/22 11:49:45;;;;;;;2.13;1.73;;;16.70;45.70;;;;;;6185318;23;20406;-73
2021/01/22 11:52:12;;;;;;;1.63;1.33;;;16.60;46.20;;;;;;6184581;23;21043;-74
2021/01/22 11:54:38;;;;;;;1.00;0.90;;;16.50;46.40;;;;;;6184156;23;20417;-73
2021/01/22 11:57:06;;;;;;;1.23;1.07;;;16.50;46.60;;;;;;6184446;23;20497;-73
2021/01/22 11:59:32;;;;;;;1.20;1.10;;;16.40;46.40;;;;;;6184743;23;20410;-73
2021/01/22 12:02:00;;;;;;;2.60;1.27;;;16.30;46.70;;;;;;6184843;23;20433;-73
2021/01/22 12:04:27;;;;;;;1.30;1.20;;;16.20;47.00;;;;;;6185706;23;20413;-72
2021/01/22 12:06:54;;;;;;;1.33;1.10;;;16.20;47.20;;;;;;6185048;23;20445;-72
2021/01/22 12:09:21;;;;;;;1.00;0.90;;;16.20;47.10;;;;;;6184896;23;20414;-72
2021/01/22 12:11:48;;;;;;;2.67;1.40;;;16.20;47.00;;;;;;6185083;23;20446;-72
2021/01/22 12:14:14;;;;;;;13.37;2.40;;;16.30;47.10;;;;;;6185086;23;20418;-73
2021/01/22 12:16:41;;;;;;;8.57;1.77;;;16.30;47.10;;;;;;6184883;23;20457;-72
2021/01/22 12:19:09;;;;;;;1.87;1.60;;;16.30;47.10;;;;;;6184914;23;20422;-72
2021/01/22 12:21:36;;;;;;;7.77;1.43;;;16.30;47.00;;;;;;6182682;23;20436;-72
2021/01/22 12:24:03;;;;;;;1.87;1.27;;;16.30;47.00;;;;;;6184888;23;20908;-72
2021/01/22 12:26:30;;;;;;;4.63;1.57;;;16.40;46.90;;;;;;6184630;23;20414;-72
2021/01/22 12:28:56;;;;;;;1.07;1.00;;;16.40;46.80;;;;;;6183014;23;20947;-72
2021/01/22 12:31:23;;;;;;;1.80;0.90;;;16.50;46.30;;;;;;6184238;23;20418;-73
2021/01/22 12:33:50;;;;;;;3.10;1.43;;;16.50;46.10;;;;;;6184210;23;20449;-73
2021/01/22 12:36:18;;;;;;;0.97;0.97;;;16.50;45.60;;;;;;6185325;23;20724;-72
2021/01/22 12:38:44;;;;;;;3.93;1.40;;;16.50;45.50;;;;;;6184862;23;20410;-72
2021/01/22 12:41:11;;;;;;;3.60;1.40;;;16.50;45.30;;;;;;6185035;23;20893;-73
2021/01/22 12:43:39;;;;;;;1.00;0.90;;;16.40;45.40;;;;;;6185711;23;20437;-72
2021/01/22 12:46:06;;;;;;;1.07;1.00;;;16.30;45.30;;;;;;6184942;23;20517;-73
2021/01/22 12:48:33;;;;;;;1.20;1.00;;;16.30;45.20;;;;;;6182419;23;20406;-72
2021/01/22 12:51:00;;;;;;;4.73;1.20;;;16.40;44.90;;;;;;6184734;23;20410;-73
2021/01/22 12:53:27;;;;;;;8.80;2.03;;;16.40;45.00;;;;;;6184830;23;20453;-73